Huvudsida
METAR-TAF:

METAR-TAF

Flygplatser :

Brindisi-Papola Casales flygplats

Brindisi, Italien

latitud: 40-39N, longitud: 017-57E, höjd: 15 m

Aktuellt väderrapport

Denna rapport gjordes för 15 minuter sedan, klockan 22:20 UTC
Vind 12 kt från syd/sydost
Temperatur 18°C
Fuktighet 77%
Tryck 1015 hPa
Sikt 10 km eller mer
Inga moln under 1 500 m eller inga cumulonimbus

METAR: LIBR 152220Z 16012KT CAVOK 18/14 Q1015

Tid: 23:35 (22:35 UTC)

Väderprognos

Denna rapport gjordes för 5 timmar och 35 minuter sedan, klockan 17:00 UTC
Prognos gäller från 15 kl. 18 UTC till 16 kl. 18 UTC
Vind 18 kt från syd i byarna ända upp till 30 kt
Sikt 10 km eller mer
Spridda moln på en höjd av 2000 ft

TAF: LIBR 151700Z 1518/1618 18018G30KT 9999 SCT020

Aktuella väderrapporter och prognoser från 4000 flygplatser (METAR- och TAF-rapporter).

De tillgängliga stationerna syns som gula och röda prickar på kartan.

För musen över prickarna för att se namnen på stationerna.

Klicka sedan för att få väderrapporter och prognoser.

För att ändra kartan: Klicka på de gröna knapparna med ett svart kors på för att zooma in; den gröna knappen med ett streck på för att zooma ut; eller på de gröna pilarna för angränsande kartor.


METAR-TAF: